sensor_id;sensor_type;location;lat;lon;timestamp;P1;durP1;ratioP1;P2;durP2;ratioP2
48767;SDS011;34933;40.968;14.538;2023-08-24T00:02:29;18.35;;;16.02;;
48767;SDS011;34933;40.968;14.538;2023-08-24T00:05:13;24.30;;;17.20;;
48767;SDS011;34933;40.968;14.538;2023-08-24T00:07:58;23.83;;;16.38;;
48767;SDS011;34933;40.968;14.538;2023-08-24T00:10:43;21.23;;;16.55;;
48767;SDS011;34933;40.968;14.538;2023-08-24T00:13:31;22.70;;;17.33;;
48767;SDS011;34933;40.968;14.538;2023-08-24T00:16:17;24.73;;;20.92;;
48767;SDS011;34933;40.968;14.538;2023-08-24T00:19:05;31.48;;;23.85;;
48767;SDS011;34933;40.968;14.538;2023-08-24T00:21:49;34.03;;;24.92;;
48767;SDS011;34933;40.968;14.538;2023-08-24T00:24:34;39.35;;;29.27;;
48767;SDS011;34933;40.968;14.538;2023-08-24T00:27:18;49.60;;;32.53;;
48767;SDS011;34933;40.968;14.538;2023-08-24T00:30:05;42.30;;;29.40;;
48767;SDS011;34933;40.968;14.538;2023-08-24T00:32:51;43.90;;;31.55;;
48767;SDS011;34933;40.968;14.538;2023-08-24T00:35:35;64.32;;;41.42;;
48767;SDS011;34933;40.968;14.538;2023-08-24T00:38:20;69.13;;;42.55;;
48767;SDS011;34933;40.968;14.538;2023-08-24T00:41:05;68.45;;;43.00;;
48767;SDS011;34933;40.968;14.538;2023-08-24T00:43:49;68.47;;;42.83;;
48767;SDS011;34933;40.968;14.538;2023-08-24T00:46:35;70.13;;;45.05;;
48767;SDS011;34933;40.968;14.538;2023-08-24T00:49:21;59.33;;;37.55;;
48767;SDS011;34933;40.968;14.538;2023-08-24T00:52:06;58.60;;;37.15;;
48767;SDS011;34933;40.968;14.538;2023-08-24T00:54:51;69.72;;;43.25;;
48767;SDS011;34933;40.968;14.538;2023-08-24T00:57:36;65.20;;;41.90;;
48767;SDS011;34933;40.968;14.538;2023-08-24T01:00:22;59.30;;;38.67;;
48767;SDS011;34933;40.968;14.538;2023-08-24T01:03:09;75.32;;;47.38;;
48767;SDS011;34933;40.968;14.538;2023-08-24T01:05:54;95.15;;;54.90;;
48767;SDS011;34933;40.968;14.538;2023-08-24T01:08:39;92.65;;;54.33;;
48767;SDS011;34933;40.968;14.538;2023-08-24T01:17:09;120.88;;;70.68;;
48767;SDS011;34933;40.968;14.538;2023-08-24T01:19:57;133.85;;;77.75;;
48767;SDS011;34933;40.968;14.538;2023-08-24T01:22:49;132.88;;;78.22;;
48767;SDS011;34933;40.968;14.538;2023-08-24T01:25:52;146.98;;;84.95;;
48767;SDS011;34933;40.968;14.538;2023-08-24T01:28:38;142.83;;;81.53;;
48767;SDS011;34933;40.968;14.538;2023-08-24T01:31:25;136.23;;;76.38;;
48767;SDS011;34933;40.968;14.538;2023-08-24T01:34:09;150.27;;;88.18;;
48767;SDS011;34933;40.968;14.538;2023-08-24T01:36:54;170.10;;;96.05;;
48767;SDS011;34933;40.968;14.538;2023-08-24T01:39:42;157.02;;;90.47;;
48767;SDS011;34933;40.968;14.538;2023-08-24T01:42:34;140.68;;;81.95;;
48767;SDS011;34933;40.968;14.538;2023-08-24T01:45:22;148.38;;;83.85;;
48767;SDS011;34933;40.968;14.538;2023-08-24T01:48:12;84.85;;;48.55;;
48767;SDS011;34933;40.968;14.538;2023-08-24T01:50:57;52.75;;;35.38;;
48767;SDS011;34933;40.968;14.538;2023-08-24T01:53:44;51.63;;;32.80;;
48767;SDS011;34933;40.968;14.538;2023-08-24T01:56:30;45.65;;;30.33;;
48767;SDS011;34933;40.968;14.538;2023-08-24T01:59:14;48.60;;;31.80;;
48767;SDS011;34933;40.968;14.538;2023-08-24T02:01:59;43.78;;;29.77;;
48767;SDS011;34933;40.968;14.538;2023-08-24T02:04:44;40.75;;;28.50;;
48767;SDS011;34933;40.968;14.538;2023-08-24T02:07:29;34.03;;;24.38;;
48767;SDS011;34933;40.968;14.538;2023-08-24T02:10:13;37.70;;;25.85;;
48767;SDS011;34933;40.968;14.538;2023-08-24T02:12:58;53.00;;;32.75;;
48767;SDS011;34933;40.968;14.538;2023-08-24T02:15:42;44.10;;;29.95;;
48767;SDS011;34933;40.968;14.538;2023-08-24T02:18:27;45.85;;;29.00;;
48767;SDS011;34933;40.968;14.538;2023-08-24T02:21:12;50.13;;;31.42;;
48767;SDS011;34933;40.968;14.538;2023-08-24T02:23:58;52.13;;;33.42;;
48767;SDS011;34933;40.968;14.538;2023-08-24T02:26:42;37.97;;;25.00;;
48767;SDS011;34933;40.968;14.538;2023-08-24T02:29:27;38.90;;;26.60;;
48767;SDS011;34933;40.968;14.538;2023-08-24T02:32:12;42.55;;;27.95;;
48767;SDS011;34933;40.968;14.538;2023-08-24T02:34:56;43.05;;;28.52;;
48767;SDS011;34933;40.968;14.538;2023-08-24T02:37:41;36.15;;;25.30;;
48767;SDS011;34933;40.968;14.538;2023-08-24T02:40:25;34.28;;;25.05;;
48767;SDS011;34933;40.968;14.538;2023-08-24T02:43:10;35.33;;;26.55;;
48767;SDS011;34933;40.968;14.538;2023-08-24T02:45:59;47.10;;;33.65;;
48767;SDS011;34933;40.968;14.538;2023-08-24T02:48:47;38.60;;;28.67;;
48767;SDS011;34933;40.968;14.538;2023-08-24T02:51:31;45.17;;;32.65;;
48767;SDS011;34933;40.968;14.538;2023-08-24T02:54:16;41.25;;;30.65;;
48767;SDS011;34933;40.968;14.538;2023-08-24T02:57:00;31.33;;;25.95;;
48767;SDS011;34933;40.968;14.538;2023-08-24T02:59:45;35.78;;;26.25;;
48767;SDS011;34933;40.968;14.538;2023-08-24T03:02:29;34.55;;;25.80;;
48767;SDS011;34933;40.968;14.538;2023-08-24T03:05:14;28.33;;;23.65;;
48767;SDS011;34933;40.968;14.538;2023-08-24T03:07:59;32.97;;;24.80;;
48767;SDS011;34933;40.968;14.538;2023-08-24T03:10:44;25.33;;;21.48;;
48767;SDS011;34933;40.968;14.538;2023-08-24T03:13:28;26.80;;;20.50;;
48767;SDS011;34933;40.968;14.538;2023-08-24T03:16:14;25.85;;;20.38;;
48767;SDS011;34933;40.968;14.538;2023-08-24T03:18:59;20.77;;;18.50;;
48767;SDS011;34933;40.968;14.538;2023-08-24T03:21:44;21.58;;;18.27;;
48767;SDS011;34933;40.968;14.538;2023-08-24T03:24:29;22.02;;;16.85;;
48767;SDS011;34933;40.968;14.538;2023-08-24T03:27:14;17.42;;;15.75;;
48767;SDS011;34933;40.968;14.538;2023-08-24T03:29:58;18.58;;;16.58;;
48767;SDS011;34933;40.968;14.538;2023-08-24T03:32:43;20.00;;;16.85;;
48767;SDS011;34933;40.968;14.538;2023-08-24T03:35:32;21.25;;;16.38;;
48767;SDS011;34933;40.968;14.538;2023-08-24T03:38:17;18.15;;;16.35;;
48767;SDS011;34933;40.968;14.538;2023-08-24T03:41:02;16.88;;;15.02;;
48767;SDS011;34933;40.968;14.538;2023-08-24T03:43:48;17.17;;;15.43;;
48767;SDS011;34933;40.968;14.538;2023-08-24T03:46:32;16.10;;;14.10;;
48767;SDS011;34933;40.968;14.538;2023-08-24T03:49:18;21.77;;;14.35;;
48767;SDS011;34933;40.968;14.538;2023-08-24T03:52:03;20.33;;;13.82;;
48767;SDS011;34933;40.968;14.538;2023-08-24T03:54:48;15.00;;;12.45;;
48767;SDS011;34933;40.968;14.538;2023-08-24T03:57:33;13.80;;;11.95;;
48767;SDS011;34933;40.968;14.538;2023-08-24T04:00:19;14.88;;;13.38;;
48767;SDS011;34933;40.968;14.538;2023-08-24T04:03:05;13.93;;;12.50;;
48767;SDS011;34933;40.968;14.538;2023-08-24T04:05:50;13.40;;;12.10;;
48767;SDS011;34933;40.968;14.538;2023-08-24T04:08:35;14.65;;;13.20;;
48767;SDS011;34933;40.968;14.538;2023-08-24T04:11:20;14.50;;;13.10;;
48767;SDS011;34933;40.968;14.538;2023-08-24T04:14:05;16.30;;;14.63;;
48767;SDS011;34933;40.968;14.538;2023-08-24T04:16:50;15.35;;;13.77;;
48767;SDS011;34933;40.968;14.538;2023-08-24T04:19:37;13.05;;;11.95;;
48767;SDS011;34933;40.968;14.538;2023-08-24T04:22:21;14.15;;;12.65;;
48767;SDS011;34933;40.968;14.538;2023-08-24T04:25:06;14.75;;;13.30;;
48767;SDS011;34933;40.968;14.538;2023-08-24T04:27:51;14.30;;;12.73;;
48767;SDS011;34933;40.968;14.538;2023-08-24T04:30:35;17.40;;;12.60;;
48767;SDS011;34933;40.968;14.538;2023-08-24T04:33:20;14.65;;;13.05;;
48767;SDS011;34933;40.968;14.538;2023-08-24T04:36:05;13.38;;;12.07;;
48767;SDS011;34933;40.968;14.538;2023-08-24T04:38:50;14.68;;;13.25;;
48767;SDS011;34933;40.968;14.538;2023-08-24T04:41:34;14.05;;;12.55;;
48767;SDS011;34933;40.968;14.538;2023-08-24T04:44:19;14.13;;;12.85;;
48767;SDS011;34933;40.968;14.538;2023-08-24T04:47:04;13.88;;;12.57;;
48767;SDS011;34933;40.968;14.538;2023-08-24T04:49:48;14.07;;;11.77;;
48767;SDS011;34933;40.968;14.538;2023-08-24T04:52:33;27.55;;;13.32;;
48767;SDS011;34933;40.968;14.538;2023-08-24T04:55:18;20.27;;;12.63;;
48767;SDS011;34933;40.968;14.538;2023-08-24T04:58:03;18.00;;;14.65;;
48767;SDS011;34933;40.968;14.538;2023-08-24T05:00:48;13.88;;;12.60;;
48767;SDS011;34933;40.968;14.538;2023-08-24T05:03:33;13.35;;;11.85;;
48767;SDS011;34933;40.968;14.538;2023-08-24T05:06:18;15.10;;;12.80;;
48767;SDS011;34933;40.968;14.538;2023-08-24T05:09:03;20.50;;;13.25;;
48767;SDS011;34933;40.968;14.538;2023-08-24T05:11:48;17.85;;;14.98;;
48767;SDS011;34933;40.968;14.538;2023-08-24T05:14:33;16.73;;;14.30;;
48767;SDS011;34933;40.968;14.538;2023-08-24T05:17:18;18.08;;;13.50;;
48767;SDS011;34933;40.968;14.538;2023-08-24T05:20:04;17.50;;;12.98;;
48767;SDS011;34933;40.968;14.538;2023-08-24T05:22:49;15.70;;;12.80;;
48767;SDS011;34933;40.968;14.538;2023-08-24T05:25:34;19.20;;;14.43;;
48767;SDS011;34933;40.968;14.538;2023-08-24T05:28:18;19.95;;;13.57;;
48767;SDS011;34933;40.968;14.538;2023-08-24T05:31:03;18.73;;;14.75;;
48767;SDS011;34933;40.968;14.538;2023-08-24T05:33:47;22.42;;;13.88;;
48767;SDS011;34933;40.968;14.538;2023-08-24T05:36:32;19.17;;;13.70;;
48767;SDS011;34933;40.968;14.538;2023-08-24T05:39:16;23.48;;;14.00;;
48767;SDS011;34933;40.968;14.538;2023-08-24T05:42:01;14.75;;;13.35;;
48767;SDS011;34933;40.968;14.538;2023-08-24T05:44:46;14.60;;;13.20;;
48767;SDS011;34933;40.968;14.538;2023-08-24T05:47:30;18.02;;;14.13;;
48767;SDS011;34933;40.968;14.538;2023-08-24T05:50:15;15.43;;;13.68;;
48767;SDS011;34933;40.968;14.538;2023-08-24T05:53:00;17.25;;;13.93;;
48767;SDS011;34933;40.968;14.538;2023-08-24T05:55:45;17.13;;;14.63;;
48767;SDS011;34933;40.968;14.538;2023-08-24T05:58:29;20.33;;;14.93;;
48767;SDS011;34933;40.968;14.538;2023-08-24T06:01:14;25.70;;;17.55;;
48767;SDS011;34933;40.968;14.538;2023-08-24T06:03:58;23.17;;;16.20;;
48767;SDS011;34933;40.968;14.538;2023-08-24T06:06:43;30.52;;;25.40;;
48767;SDS011;34933;40.968;14.538;2023-08-24T06:09:27;26.15;;;19.83;;
48767;SDS011;34933;40.968;14.538;2023-08-24T06:12:12;24.65;;;19.83;;
48767;SDS011;34933;40.968;14.538;2023-08-24T06:14:57;41.20;;;35.78;;
48767;SDS011;34933;40.968;14.538;2023-08-24T06:17:41;56.25;;;47.13;;
48767;SDS011;34933;40.968;14.538;2023-08-24T06:20:36;57.38;;;45.25;;
48767;SDS011;34933;40.968;14.538;2023-08-24T06:23:20;63.40;;;48.58;;
48767;SDS011;34933;40.968;14.538;2023-08-24T06:26:05;52.47;;;37.15;;
48767;SDS011;34933;40.968;14.538;2023-08-24T06:28:50;39.65;;;32.10;;
48767;SDS011;34933;40.968;14.538;2023-08-24T06:31:34;31.98;;;28.48;;
48767;SDS011;34933;40.968;14.538;2023-08-24T06:34:19;33.95;;;27.63;;
48767;SDS011;34933;40.968;14.538;2023-08-24T06:37:04;37.75;;;29.98;;
48767;SDS011;34933;40.968;14.538;2023-08-24T06:39:49;38.50;;;27.00;;
48767;SDS011;34933;40.968;14.538;2023-08-24T06:42:33;32.90;;;26.42;;
48767;SDS011;34933;40.968;14.538;2023-08-24T06:45:18;51.40;;;38.22;;
48767;SDS011;34933;40.968;14.538;2023-08-24T06:48:03;57.67;;;34.17;;
48767;SDS011;34933;40.968;14.538;2023-08-24T06:50:49;43.22;;;28.25;;
48767;SDS011;34933;40.968;14.538;2023-08-24T06:53:34;34.97;;;22.42;;
48767;SDS011;34933;40.968;14.538;2023-08-24T06:56:19;24.40;;;18.52;;
48767;SDS011;34933;40.968;14.538;2023-08-24T06:59:04;34.05;;;19.27;;
48767;SDS011;34933;40.968;14.538;2023-08-24T07:01:52;22.67;;;16.83;;
48767;SDS011;34933;40.968;14.538;2023-08-24T07:04:37;35.97;;;27.58;;
48767;SDS011;34933;40.968;14.538;2023-08-24T07:07:24;46.40;;;37.65;;
48767;SDS011;34933;40.968;14.538;2023-08-24T07:10:09;53.08;;;38.25;;
48767;SDS011;34933;40.968;14.538;2023-08-24T07:12:54;64.30;;;43.13;;
48767;SDS011;34933;40.968;14.538;2023-08-24T07:15:38;44.80;;;31.15;;
48767;SDS011;34933;40.968;14.538;2023-08-24T07:18:23;41.88;;;26.75;;
48767;SDS011;34933;40.968;14.538;2023-08-24T07:21:09;32.45;;;22.80;;
48767;SDS011;34933;40.968;14.538;2023-08-24T07:23:53;41.50;;;21.77;;
48767;SDS011;34933;40.968;14.538;2023-08-24T07:26:39;36.72;;;21.25;;
48767;SDS011;34933;40.968;14.538;2023-08-24T07:29:26;33.35;;;21.75;;
48767;SDS011;34933;40.968;14.538;2023-08-24T07:32:11;52.55;;;27.77;;
48767;SDS011;34933;40.968;14.538;2023-08-24T07:34:55;52.85;;;31.38;;
48767;SDS011;34933;40.968;14.538;2023-08-24T07:37:40;44.47;;;27.33;;
48767;SDS011;34933;40.968;14.538;2023-08-24T07:40:25;40.78;;;25.95;;
48767;SDS011;34933;40.968;14.538;2023-08-24T07:43:09;36.75;;;23.48;;
48767;SDS011;34933;40.968;14.538;2023-08-24T07:45:54;42.45;;;22.30;;
48767;SDS011;34933;40.968;14.538;2023-08-24T07:48:39;39.60;;;23.73;;
48767;SDS011;34933;40.968;14.538;2023-08-24T07:51:24;33.75;;;22.90;;
48767;SDS011;34933;40.968;14.538;2023-08-24T07:54:08;34.92;;;22.85;;
48767;SDS011;34933;40.968;14.538;2023-08-24T07:56:53;44.30;;;27.23;;
48767;SDS011;34933;40.968;14.538;2023-08-24T07:59:38;43.20;;;25.55;;
48767;SDS011;34933;40.968;14.538;2023-08-24T08:02:22;42.17;;;26.23;;
48767;SDS011;34933;40.968;14.538;2023-08-24T08:05:07;55.28;;;28.52;;
48767;SDS011;34933;40.968;14.538;2023-08-24T08:07:54;56.78;;;28.65;;
48767;SDS011;34933;40.968;14.538;2023-08-24T08:10:38;44.65;;;26.25;;
48767;SDS011;34933;40.968;14.538;2023-08-24T08:13:23;48.28;;;26.33;;
48767;SDS011;34933;40.968;14.538;2023-08-24T08:16:08;47.88;;;25.40;;
48767;SDS011;34933;40.968;14.538;2023-08-24T08:18:53;43.22;;;25.08;;
48767;SDS011;34933;40.968;14.538;2023-08-24T08:21:37;38.00;;;22.55;;
48767;SDS011;34933;40.968;14.538;2023-08-24T08:24:22;37.53;;;21.48;;
48767;SDS011;34933;40.968;14.538;2023-08-24T08:27:07;31.38;;;19.60;;
48767;SDS011;34933;40.968;14.538;2023-08-24T08:29:52;38.75;;;21.33;;
48767;SDS011;34933;40.968;14.538;2023-08-24T08:32:37;27.92;;;18.58;;
48767;SDS011;34933;40.968;14.538;2023-08-24T08:35:21;42.42;;;20.58;;
48767;SDS011;34933;40.968;14.538;2023-08-24T08:38:06;39.25;;;20.70;;
48767;SDS011;34933;40.968;14.538;2023-08-24T08:40:55;40.70;;;22.80;;
48767;SDS011;34933;40.968;14.538;2023-08-24T08:43:45;34.15;;;22.67;;
48767;SDS011;34933;40.968;14.538;2023-08-24T08:46:32;35.83;;;21.65;;
48767;SDS011;34933;40.968;14.538;2023-08-24T08:49:16;41.65;;;23.25;;
48767;SDS011;34933;40.968;14.538;2023-08-24T08:52:03;49.88;;;26.48;;
48767;SDS011;34933;40.968;14.538;2023-08-24T08:54:47;36.80;;;22.30;;
48767;SDS011;34933;40.968;14.538;2023-08-24T08:57:32;41.83;;;23.80;;
48767;SDS011;34933;40.968;14.538;2023-08-24T09:00:17;50.88;;;27.17;;
48767;SDS011;34933;40.968;14.538;2023-08-24T09:03:02;49.17;;;27.15;;
48767;SDS011;34933;40.968;14.538;2023-08-24T09:05:48;39.10;;;23.33;;
48767;SDS011;34933;40.968;14.538;2023-08-24T09:08:33;43.58;;;25.50;;
48767;SDS011;34933;40.968;14.538;2023-08-24T09:11:18;30.58;;;19.88;;
48767;SDS011;34933;40.968;14.538;2023-08-24T09:14:02;23.73;;;18.45;;
48767;SDS011;34933;40.968;14.538;2023-08-24T09:16:47;43.50;;;20.98;;
48767;SDS011;34933;40.968;14.538;2023-08-24T09:19:33;44.70;;;19.48;;
48767;SDS011;34933;40.968;14.538;2023-08-24T09:22:22;29.73;;;18.58;;
48767;SDS011;34933;40.968;14.538;2023-08-24T09:25:10;30.75;;;15.85;;
48767;SDS011;34933;40.968;14.538;2023-08-24T09:27:58;46.17;;;20.88;;
48767;SDS011;34933;40.968;14.538;2023-08-24T09:30:45;35.20;;;19.42;;
48767;SDS011;34933;40.968;14.538;2023-08-24T09:33:29;37.00;;;18.90;;
48767;SDS011;34933;40.968;14.538;2023-08-24T09:36:14;31.38;;;17.92;;
48767;SDS011;34933;40.968;14.538;2023-08-24T09:38:59;33.20;;;16.70;;
48767;SDS011;34933;40.968;14.538;2023-08-24T09:41:45;29.85;;;17.38;;
48767;SDS011;34933;40.968;14.538;2023-08-24T09:44:33;26.40;;;18.05;;
48767;SDS011;34933;40.968;14.538;2023-08-24T09:47:18;28.33;;;17.80;;
48767;SDS011;34933;40.968;14.538;2023-08-24T09:50:03;30.52;;;18.75;;
48767;SDS011;34933;40.968;14.538;2023-08-24T09:52:48;35.83;;;18.45;;
48767;SDS011;34933;40.968;14.538;2023-08-24T09:55:38;31.77;;;17.87;;
48767;SDS011;34933;40.968;14.538;2023-08-24T09:58:26;24.85;;;16.02;;
48767;SDS011;34933;40.968;14.538;2023-08-24T10:01:12;18.08;;;15.05;;
48767;SDS011;34933;40.968;14.538;2023-08-24T10:03:58;27.90;;;17.17;;
48767;SDS011;34933;40.968;14.538;2023-08-24T10:06:44;22.17;;;16.05;;
48767;SDS011;34933;40.968;14.538;2023-08-24T10:12:43;28.20;;;17.42;;
48767;SDS011;34933;40.968;14.538;2023-08-24T10:15:33;27.70;;;18.23;;
48767;SDS011;34933;40.968;14.538;2023-08-24T10:18:20;31.08;;;16.98;;
48767;SDS011;34933;40.968;14.538;2023-08-24T10:21:07;22.05;;;17.45;;
48767;SDS011;34933;40.968;14.538;2023-08-24T10:23:52;22.63;;;17.10;;
48767;SDS011;34933;40.968;14.538;2023-08-24T10:26:39;26.83;;;17.15;;
48767;SDS011;34933;40.968;14.538;2023-08-24T10:29:25;21.42;;;14.02;;
48767;SDS011;34933;40.968;14.538;2023-08-24T10:32:11;21.60;;;14.30;;
48767;SDS011;34933;40.968;14.538;2023-08-24T10:34:57;21.63;;;15.57;;
48767;SDS011;34933;40.968;14.538;2023-08-24T10:37:44;20.55;;;14.43;;
48767;SDS011;34933;40.968;14.538;2023-08-24T10:40:35;24.85;;;13.40;;
48767;SDS011;34933;40.968;14.538;2023-08-24T10:43:27;21.25;;;14.02;;
48767;SDS011;34933;40.968;14.538;2023-08-24T10:46:15;19.30;;;14.25;;
48767;SDS011;34933;40.968;14.538;2023-08-24T10:49:03;18.77;;;13.70;;
48767;SDS011;34933;40.968;14.538;2023-08-24T10:51:48;19.23;;;14.43;;
48767;SDS011;34933;40.968;14.538;2023-08-24T10:54:33;19.85;;;13.27;;
48767;SDS011;34933;40.968;14.538;2023-08-24T10:57:35;20.33;;;13.30;;
48767;SDS011;34933;40.968;14.538;2023-08-24T11:00:30;21.70;;;13.20;;
48767;SDS011;34933;40.968;14.538;2023-08-24T11:03:23;22.67;;;12.70;;
48767;SDS011;34933;40.968;14.538;2023-08-24T11:09:06;16.17;;;11.18;;
48767;SDS011;34933;40.968;14.538;2023-08-24T11:11:58;22.88;;;11.93;;
48767;SDS011;34933;40.968;14.538;2023-08-24T11:14:53;22.48;;;11.07;;
48767;SDS011;34933;40.968;14.538;2023-08-24T11:17:42;14.77;;;9.48;;
48767;SDS011;34933;40.968;14.538;2023-08-24T11:20:27;15.90;;;10.27;;
48767;SDS011;34933;40.968;14.538;2023-08-24T11:23:14;14.43;;;9.30;;
48767;SDS011;34933;40.968;14.538;2023-08-24T11:25:59;15.98;;;9.18;;
48767;SDS011;34933;40.968;14.538;2023-08-24T11:28:44;15.40;;;9.65;;
48767;SDS011;34933;40.968;14.538;2023-08-24T11:31:29;16.45;;;9.95;;
48767;SDS011;34933;40.968;14.538;2023-08-24T11:34:17;13.50;;;10.15;;
48767;SDS011;34933;40.968;14.538;2023-08-24T11:37:01;16.85;;;9.57;;
48767;SDS011;34933;40.968;14.538;2023-08-24T11:39:46;17.45;;;10.57;;
48767;SDS011;34933;40.968;14.538;2023-08-24T11:42:37;14.35;;;9.63;;
48767;SDS011;34933;40.968;14.538;2023-08-24T11:48:07;10.25;;;9.27;;
48767;SDS011;34933;40.968;14.538;2023-08-24T11:50:51;14.40;;;9.57;;
48767;SDS011;34933;40.968;14.538;2023-08-24T11:53:41;11.50;;;10.32;;
48767;SDS011;34933;40.968;14.538;2023-08-24T11:56:27;13.25;;;9.70;;
48767;SDS011;34933;40.968;14.538;2023-08-24T11:59:12;10.57;;;9.50;;
48767;SDS011;34933;40.968;14.538;2023-08-24T12:01:57;13.93;;;8.55;;
48767;SDS011;34933;40.968;14.538;2023-08-24T12:04:42;18.15;;;10.38;;
48767;SDS011;34933;40.968;14.538;2023-08-24T12:07:28;13.18;;;9.85;;
48767;SDS011;34933;40.968;14.538;2023-08-24T12:10:13;13.70;;;10.43;;
48767;SDS011;34933;40.968;14.538;2023-08-24T12:13:02;15.80;;;10.07;;
48767;SDS011;34933;40.968;14.538;2023-08-24T12:15:52;10.90;;;9.40;;
48767;SDS011;34933;40.968;14.538;2023-08-24T12:18:45;17.10;;;10.27;;
48767;SDS011;34933;40.968;14.538;2023-08-24T12:21:31;14.50;;;9.77;;
48767;SDS011;34933;40.968;14.538;2023-08-24T12:24:15;14.75;;;9.32;;
48767;SDS011;34933;40.968;14.538;2023-08-24T12:27:00;10.27;;;8.32;;
48767;SDS011;34933;40.968;14.538;2023-08-24T12:29:47;12.73;;;9.80;;
48767;SDS011;34933;40.968;14.538;2023-08-24T12:32:47;13.75;;;9.65;;
48767;SDS011;34933;40.968;14.538;2023-08-24T12:35:34;11.30;;;9.05;;
48767;SDS011;34933;40.968;14.538;2023-08-24T12:38:19;14.93;;;10.93;;
48767;SDS011;34933;40.968;14.538;2023-08-24T12:41:03;18.00;;;9.75;;
48767;SDS011;34933;40.968;14.538;2023-08-24T12:43:48;12.95;;;9.50;;
48767;SDS011;34933;40.968;14.538;2023-08-24T12:46:36;13.38;;;9.52;;
48767;SDS011;34933;40.968;14.538;2023-08-24T12:49:21;14.25;;;9.90;;
48767;SDS011;34933;40.968;14.538;2023-08-24T12:52:06;12.50;;;9.82;;
48767;SDS011;34933;40.968;14.538;2023-08-24T12:54:51;11.95;;;10.52;;
48767;SDS011;34933;40.968;14.538;2023-08-24T12:57:35;14.35;;;10.00;;
48767;SDS011;34933;40.968;14.538;2023-08-24T13:00:20;11.90;;;10.02;;
48767;SDS011;34933;40.968;14.538;2023-08-24T13:03:05;9.85;;;8.85;;
48767;SDS011;34933;40.968;14.538;2023-08-24T13:05:50;10.80;;;9.70;;
48767;SDS011;34933;40.968;14.538;2023-08-24T13:08:35;15.02;;;10.15;;
48767;SDS011;34933;40.968;14.538;2023-08-24T13:11:20;11.48;;;9.60;;
48767;SDS011;34933;40.968;14.538;2023-08-24T13:14:05;11.13;;;10.13;;
48767;SDS011;34933;40.968;14.538;2023-08-24T13:16:50;12.27;;;10.38;;
48767;SDS011;34933;40.968;14.538;2023-08-24T13:19:35;11.35;;;10.35;;
48767;SDS011;34933;40.968;14.538;2023-08-24T13:22:19;13.30;;;10.13;;
48767;SDS011;34933;40.968;14.538;2023-08-24T13:25:04;14.23;;;11.73;;
48767;SDS011;34933;40.968;14.538;2023-08-24T13:27:49;15.32;;;11.23;;
48767;SDS011;34933;40.968;14.538;2023-08-24T13:30:34;14.27;;;10.93;;
48767;SDS011;34933;40.968;14.538;2023-08-24T13:33:18;14.32;;;12.45;;
48767;SDS011;34933;40.968;14.538;2023-08-24T13:36:03;14.15;;;12.30;;
48767;SDS011;34933;40.968;14.538;2023-08-24T13:38:48;15.98;;;12.40;;
48767;SDS011;34933;40.968;14.538;2023-08-24T13:41:33;16.50;;;12.70;;
48767;SDS011;34933;40.968;14.538;2023-08-24T13:44:18;21.83;;;12.35;;
48767;SDS011;34933;40.968;14.538;2023-08-24T13:47:03;13.82;;;12.57;;
48767;SDS011;34933;40.968;14.538;2023-08-24T13:49:47;16.33;;;12.38;;
48767;SDS011;34933;40.968;14.538;2023-08-24T13:52:32;18.38;;;13.35;;
48767;SDS011;34933;40.968;14.538;2023-08-24T13:55:17;14.82;;;12.88;;
48767;SDS011;34933;40.968;14.538;2023-08-24T13:58:02;23.83;;;13.38;;
48767;SDS011;34933;40.968;14.538;2023-08-24T14:00:47;14.45;;;12.45;;
48767;SDS011;34933;40.968;14.538;2023-08-24T14:03:31;13.82;;;12.32;;
48767;SDS011;34933;40.968;14.538;2023-08-24T14:06:16;18.50;;;14.48;;
48767;SDS011;34933;40.968;14.538;2023-08-24T14:09:01;21.73;;;12.93;;
48767;SDS011;34933;40.968;14.538;2023-08-24T14:11:47;19.00;;;13.95;;
48767;SDS011;34933;40.968;14.538;2023-08-24T14:14:31;18.33;;;13.52;;
48767;SDS011;34933;40.968;14.538;2023-08-24T14:17:16;18.00;;;12.80;;
48767;SDS011;34933;40.968;14.538;2023-08-24T14:20:01;16.33;;;12.95;;
48767;SDS011;34933;40.968;14.538;2023-08-24T14:22:48;16.73;;;12.63;;
48767;SDS011;34933;40.968;14.538;2023-08-24T14:25:33;14.57;;;13.00;;
48767;SDS011;34933;40.968;14.538;2023-08-24T14:28:19;17.80;;;12.98;;
48767;SDS011;34933;40.968;14.538;2023-08-24T14:31:06;16.77;;;13.05;;
48767;SDS011;34933;40.968;14.538;2023-08-24T14:33:51;16.83;;;12.65;;
48767;SDS011;34933;40.968;14.538;2023-08-24T14:36:36;16.23;;;12.80;;
48767;SDS011;34933;40.968;14.538;2023-08-24T14:39:20;12.63;;;11.38;;
48767;SDS011;34933;40.968;14.538;2023-08-24T14:42:05;15.90;;;13.48;;
48767;SDS011;34933;40.968;14.538;2023-08-24T14:44:49;18.48;;;14.30;;
48767;SDS011;34933;40.968;14.538;2023-08-24T14:47:34;17.50;;;12.75;;
48767;SDS011;34933;40.968;14.538;2023-08-24T14:50:19;18.75;;;12.45;;
48767;SDS011;34933;40.968;14.538;2023-08-24T14:53:04;16.45;;;13.50;;
48767;SDS011;34933;40.968;14.538;2023-08-24T14:55:49;20.33;;;12.85;;
48767;SDS011;34933;40.968;14.538;2023-08-24T14:58:33;26.02;;;11.25;;
48767;SDS011;34933;40.968;14.538;2023-08-24T15:01:18;12.32;;;11.07;;
48767;SDS011;34933;40.968;14.538;2023-08-24T15:04:03;14.23;;;10.48;;
48767;SDS011;34933;40.968;14.538;2023-08-24T15:06:47;20.73;;;10.82;;
48767;SDS011;34933;40.968;14.538;2023-08-24T15:09:32;19.55;;;10.40;;
48767;SDS011;34933;40.968;14.538;2023-08-24T15:12:17;24.80;;;10.63;;
48767;SDS011;34933;40.968;14.538;2023-08-24T15:15:02;25.67;;;12.27;;
48767;SDS011;34933;40.968;14.538;2023-08-24T15:17:47;28.95;;;11.45;;
48767;SDS011;34933;40.968;14.538;2023-08-24T15:20:32;22.85;;;10.13;;
48767;SDS011;34933;40.968;14.538;2023-08-24T15:23:26;13.95;;;9.52;;
48767;SDS011;34933;40.968;14.538;2023-08-24T15:26:12;16.70;;;10.40;;
48767;SDS011;34933;40.968;14.538;2023-08-24T15:29:07;27.95;;;9.40;;
48767;SDS011;34933;40.968;14.538;2023-08-24T15:31:57;18.35;;;10.32;;
48767;SDS011;34933;40.968;14.538;2023-08-24T15:34:41;25.50;;;10.63;;
48767;SDS011;34933;40.968;14.538;2023-08-24T15:37:26;15.48;;;11.20;;
48767;SDS011;34933;40.968;14.538;2023-08-24T15:40:11;11.77;;;10.60;;
48767;SDS011;34933;40.968;14.538;2023-08-24T15:42:55;14.93;;;10.77;;
48767;SDS011;34933;40.968;14.538;2023-08-24T15:45:40;14.15;;;9.75;;
48767;SDS011;34933;40.968;14.538;2023-08-24T15:48:25;18.45;;;9.65;;
48767;SDS011;34933;40.968;14.538;2023-08-24T15:51:09;12.63;;;10.48;;
48767;SDS011;34933;40.968;14.538;2023-08-24T15:53:55;16.48;;;10.90;;
48767;SDS011;34933;40.968;14.538;2023-08-24T15:56:39;14.95;;;10.90;;
48767;SDS011;34933;40.968;14.538;2023-08-24T15:59:28;12.82;;;9.77;;
48767;SDS011;34933;40.968;14.538;2023-08-24T16:02:13;23.67;;;10.30;;
48767;SDS011;34933;40.968;14.538;2023-08-24T16:04:57;16.08;;;10.68;;
48767;SDS011;34933;40.968;14.538;2023-08-24T16:07:42;16.45;;;14.52;;
48767;SDS011;34933;40.968;14.538;2023-08-24T16:10:27;28.10;;;17.60;;